Terminal Aerodrome Forecast
Issued by NWS

Home | Current Version | Previous Version | Text Only | Print | Product List | Glossary On
Versions: 1 2 3 4 5 6 7 8 9 10 11 12 13 14 15 16
373
FTUS44 KTSA 291127
TAFRVS
TAF
KRVS 291127Z 2912/3012 22012KT P6SM VCTS OVC035CB
      TEMPO 2912/2913 VRB15G25KT 2SM -TSRA BR BKN015CB
     FM291600 17013G22KT P6SM BKN025
     FM292000 19012KT P6SM BKN050
     FM300200 26005KT P6SM BKN100=

USA.gov is the U.S. government's official web portal to all federal, state and local government web resources and services.